sensor_id;sensor_type;location;lat;lon;timestamp;P1;durP1;ratioP1;P2;durP2;ratioP2
56999;SDS011;42891;50.006;21.964;2023-03-02T00:00:30;220.52;;;98.22;;
56999;SDS011;42891;50.006;21.964;2023-03-02T00:04:36;213.63;;;98.07;;
56999;SDS011;42891;50.006;21.964;2023-03-02T00:08:44;222.82;;;102.00;;
56999;SDS011;42891;50.006;21.964;2023-03-02T00:12:46;215.02;;;100.97;;
56999;SDS011;42891;50.006;21.964;2023-03-02T00:16:46;235.88;;;107.32;;
56999;SDS011;42891;50.006;21.964;2023-03-02T00:20:46;232.98;;;107.25;;
56999;SDS011;42891;50.006;21.964;2023-03-02T00:24:47;220.30;;;104.70;;
56999;SDS011;42891;50.006;21.964;2023-03-02T00:28:47;213.33;;;101.90;;
56999;SDS011;42891;50.006;21.964;2023-03-02T00:32:47;213.40;;;94.72;;
56999;SDS011;42891;50.006;21.964;2023-03-02T00:36:48;194.25;;;88.47;;
56999;SDS011;42891;50.006;21.964;2023-03-02T00:40:48;203.05;;;88.90;;
56999;SDS011;42891;50.006;21.964;2023-03-02T00:44:48;199.70;;;87.55;;
56999;SDS011;42891;50.006;21.964;2023-03-02T00:48:51;192.85;;;87.18;;
56999;SDS011;42891;50.006;21.964;2023-03-02T00:52:51;167.57;;;81.45;;
56999;SDS011;42891;50.006;21.964;2023-03-02T00:56:52;155.05;;;71.07;;
56999;SDS011;42891;50.006;21.964;2023-03-02T01:00:52;150.23;;;66.85;;
56999;SDS011;42891;50.006;21.964;2023-03-02T01:04:52;136.30;;;62.50;;
56999;SDS011;42891;50.006;21.964;2023-03-02T01:08:53;140.05;;;63.88;;
56999;SDS011;42891;50.006;21.964;2023-03-02T01:12:53;142.07;;;62.92;;
56999;SDS011;42891;50.006;21.964;2023-03-02T01:16:53;148.50;;;65.97;;
56999;SDS011;42891;50.006;21.964;2023-03-02T01:21:04;134.10;;;59.85;;
56999;SDS011;42891;50.006;21.964;2023-03-02T01:25:06;133.20;;;61.42;;
56999;SDS011;42891;50.006;21.964;2023-03-02T01:29:07;130.15;;;61.00;;
56999;SDS011;42891;50.006;21.964;2023-03-02T01:33:07;140.15;;;63.13;;
56999;SDS011;42891;50.006;21.964;2023-03-02T01:37:08;153.15;;;64.95;;
56999;SDS011;42891;50.006;21.964;2023-03-02T01:41:08;143.77;;;64.00;;
56999;SDS011;42891;50.006;21.964;2023-03-02T01:49:56;152.95;;;68.47;;
56999;SDS011;42891;50.006;21.964;2023-03-02T01:54:00;150.10;;;63.60;;
56999;SDS011;42891;50.006;21.964;2023-03-02T01:58:03;139.73;;;61.90;;
56999;SDS011;42891;50.006;21.964;2023-03-02T02:02:06;137.13;;;63.08;;
56999;SDS011;42891;50.006;21.964;2023-03-02T02:10:16;143.50;;;63.15;;
56999;SDS011;42891;50.006;21.964;2023-03-02T02:14:17;149.95;;;67.75;;
56999;SDS011;42891;50.006;21.964;2023-03-02T02:18:17;164.20;;;67.43;;
56999;SDS011;42891;50.006;21.964;2023-03-02T02:22:19;135.18;;;63.03;;
56999;SDS011;42891;50.006;21.964;2023-03-02T02:26:32;149.10;;;66.85;;
56999;SDS011;42891;50.006;21.964;2023-03-02T02:30:36;149.18;;;65.38;;
56999;SDS011;42891;50.006;21.964;2023-03-02T02:34:46;143.93;;;63.33;;
56999;SDS011;42891;50.006;21.964;2023-03-02T02:38:51;144.85;;;65.95;;
56999;SDS011;42891;50.006;21.964;2023-03-02T02:42:53;137.68;;;63.72;;
56999;SDS011;42891;50.006;21.964;2023-03-02T02:46:53;147.75;;;65.30;;
56999;SDS011;42891;50.006;21.964;2023-03-02T02:50:54;136.18;;;64.00;;
56999;SDS011;42891;50.006;21.964;2023-03-02T02:54:59;131.20;;;60.80;;
56999;SDS011;42891;50.006;21.964;2023-03-02T02:59:01;139.93;;;64.20;;
56999;SDS011;42891;50.006;21.964;2023-03-02T03:03:06;127.10;;;62.28;;
56999;SDS011;42891;50.006;21.964;2023-03-02T03:07:29;136.82;;;63.53;;
56999;SDS011;42891;50.006;21.964;2023-03-02T03:11:33;142.63;;;67.75;;
56999;SDS011;42891;50.006;21.964;2023-03-02T03:19:37;136.85;;;63.45;;
56999;SDS011;42891;50.006;21.964;2023-03-02T03:27:42;131.13;;;62.25;;
56999;SDS011;42891;50.006;21.964;2023-03-02T03:31:43;125.38;;;60.55;;
56999;SDS011;42891;50.006;21.964;2023-03-02T03:35:43;132.88;;;58.90;;
56999;SDS011;42891;50.006;21.964;2023-03-02T03:39:43;114.57;;;57.22;;
56999;SDS011;42891;50.006;21.964;2023-03-02T03:43:44;122.72;;;52.67;;
56999;SDS011;42891;50.006;21.964;2023-03-02T03:47:44;122.45;;;53.28;;
56999;SDS011;42891;50.006;21.964;2023-03-02T03:51:45;120.00;;;55.90;;
56999;SDS011;42891;50.006;21.964;2023-03-02T03:55:46;128.15;;;60.50;;
56999;SDS011;42891;50.006;21.964;2023-03-02T03:59:46;114.43;;;55.53;;
56999;SDS011;42891;50.006;21.964;2023-03-02T04:03:47;105.72;;;50.78;;
56999;SDS011;42891;50.006;21.964;2023-03-02T04:07:47;111.68;;;51.80;;
56999;SDS011;42891;50.006;21.964;2023-03-02T04:11:48;110.63;;;52.20;;
56999;SDS011;42891;50.006;21.964;2023-03-02T04:15:49;106.15;;;49.67;;
56999;SDS011;42891;50.006;21.964;2023-03-02T04:19:50;107.68;;;50.90;;
56999;SDS011;42891;50.006;21.964;2023-03-02T04:23:50;107.85;;;51.33;;
56999;SDS011;42891;50.006;21.964;2023-03-02T04:27:51;112.57;;;52.58;;
56999;SDS011;42891;50.006;21.964;2023-03-02T04:31:52;101.10;;;47.83;;
56999;SDS011;42891;50.006;21.964;2023-03-02T04:35:52;102.97;;;49.97;;
56999;SDS011;42891;50.006;21.964;2023-03-02T04:39:53;106.97;;;49.47;;
56999;SDS011;42891;50.006;21.964;2023-03-02T04:43:53;102.60;;;49.00;;
56999;SDS011;42891;50.006;21.964;2023-03-02T04:47:54;105.68;;;51.00;;
56999;SDS011;42891;50.006;21.964;2023-03-02T04:51:54;100.07;;;47.25;;
56999;SDS011;42891;50.006;21.964;2023-03-02T04:55:54;103.53;;;49.80;;
56999;SDS011;42891;50.006;21.964;2023-03-02T04:59:54;109.78;;;51.60;;
56999;SDS011;42891;50.006;21.964;2023-03-02T05:03:55;107.80;;;49.95;;
56999;SDS011;42891;50.006;21.964;2023-03-02T05:07:55;104.35;;;49.03;;
56999;SDS011;42891;50.006;21.964;2023-03-02T05:11:58;107.75;;;49.53;;
56999;SDS011;42891;50.006;21.964;2023-03-02T05:15:59;112.22;;;50.60;;
56999;SDS011;42891;50.006;21.964;2023-03-02T05:20:00;108.20;;;51.28;;
56999;SDS011;42891;50.006;21.964;2023-03-02T05:24:00;110.68;;;50.30;;
56999;SDS011;42891;50.006;21.964;2023-03-02T05:28:02;101.80;;;51.28;;
56999;SDS011;42891;50.006;21.964;2023-03-02T05:32:03;104.22;;;50.30;;
56999;SDS011;42891;50.006;21.964;2023-03-02T05:36:04;116.25;;;53.95;;
56999;SDS011;42891;50.006;21.964;2023-03-02T05:40:04;120.38;;;56.58;;
56999;SDS011;42891;50.006;21.964;2023-03-02T05:44:06;121.20;;;56.70;;
56999;SDS011;42891;50.006;21.964;2023-03-02T05:48:09;127.78;;;57.25;;
56999;SDS011;42891;50.006;21.964;2023-03-02T05:52:09;119.60;;;54.45;;
56999;SDS011;42891;50.006;21.964;2023-03-02T05:56:09;119.00;;;55.50;;
56999;SDS011;42891;50.006;21.964;2023-03-02T06:00:10;112.20;;;49.80;;
56999;SDS011;42891;50.006;21.964;2023-03-02T06:04:12;116.22;;;51.17;;
56999;SDS011;42891;50.006;21.964;2023-03-02T06:08:12;110.60;;;51.15;;
56999;SDS011;42891;50.006;21.964;2023-03-02T06:12:13;106.93;;;48.88;;
56999;SDS011;42891;50.006;21.964;2023-03-02T06:16:13;109.70;;;49.70;;
56999;SDS011;42891;50.006;21.964;2023-03-02T06:20:14;109.47;;;51.83;;
56999;SDS011;42891;50.006;21.964;2023-03-02T06:24:14;113.43;;;51.38;;
56999;SDS011;42891;50.006;21.964;2023-03-02T06:28:15;110.60;;;51.90;;
56999;SDS011;42891;50.006;21.964;2023-03-02T06:32:18;108.07;;;52.92;;
56999;SDS011;42891;50.006;21.964;2023-03-02T06:36:19;108.40;;;49.13;;
56999;SDS011;42891;50.006;21.964;2023-03-02T06:40:19;104.05;;;49.50;;
56999;SDS011;42891;50.006;21.964;2023-03-02T06:44:20;97.03;;;46.65;;
56999;SDS011;42891;50.006;21.964;2023-03-02T06:48:20;95.80;;;46.83;;
56999;SDS011;42891;50.006;21.964;2023-03-02T06:52:21;95.78;;;47.53;;
56999;SDS011;42891;50.006;21.964;2023-03-02T06:56:21;139.15;;;62.30;;
56999;SDS011;42891;50.006;21.964;2023-03-02T07:00:22;100.35;;;48.10;;
56999;SDS011;42891;50.006;21.964;2023-03-02T07:04:27;96.72;;;48.10;;
56999;SDS011;42891;50.006;21.964;2023-03-02T07:08:27;111.22;;;51.05;;
56999;SDS011;42891;50.006;21.964;2023-03-02T07:12:27;98.90;;;46.67;;
56999;SDS011;42891;50.006;21.964;2023-03-02T07:16:28;107.75;;;50.80;;
56999;SDS011;42891;50.006;21.964;2023-03-02T07:20:30;125.68;;;63.33;;
56999;SDS011;42891;50.006;21.964;2023-03-02T07:24:30;111.18;;;50.65;;
56999;SDS011;42891;50.006;21.964;2023-03-02T07:28:31;104.65;;;50.30;;
56999;SDS011;42891;50.006;21.964;2023-03-02T07:32:31;98.00;;;49.05;;
56999;SDS011;42891;50.006;21.964;2023-03-02T07:36:31;94.20;;;46.63;;
56999;SDS011;42891;50.006;21.964;2023-03-02T07:40:32;103.00;;;49.83;;
56999;SDS011;42891;50.006;21.964;2023-03-02T07:44:33;105.45;;;48.22;;
56999;SDS011;42891;50.006;21.964;2023-03-02T07:48:33;95.10;;;48.13;;
56999;SDS011;42891;50.006;21.964;2023-03-02T07:52:34;105.85;;;49.63;;
56999;SDS011;42891;50.006;21.964;2023-03-02T07:56:34;101.18;;;48.33;;
56999;SDS011;42891;50.006;21.964;2023-03-02T08:00:35;100.30;;;48.38;;
56999;SDS011;42891;50.006;21.964;2023-03-02T08:04:35;92.07;;;45.28;;
56999;SDS011;42891;50.006;21.964;2023-03-02T08:08:36;93.80;;;45.45;;
56999;SDS011;42891;50.006;21.964;2023-03-02T08:12:36;89.15;;;43.88;;
56999;SDS011;42891;50.006;21.964;2023-03-02T08:16:37;91.30;;;45.92;;
56999;SDS011;42891;50.006;21.964;2023-03-02T08:20:38;87.45;;;44.42;;
56999;SDS011;42891;50.006;21.964;2023-03-02T08:24:38;89.68;;;41.75;;
56999;SDS011;42891;50.006;21.964;2023-03-02T08:28:40;78.70;;;40.30;;
56999;SDS011;42891;50.006;21.964;2023-03-02T08:32:41;75.38;;;38.88;;
56999;SDS011;42891;50.006;21.964;2023-03-02T08:36:41;85.60;;;42.65;;
56999;SDS011;42891;50.006;21.964;2023-03-02T08:40:42;83.35;;;42.22;;
56999;SDS011;42891;50.006;21.964;2023-03-02T08:44:43;79.93;;;41.97;;
56999;SDS011;42891;50.006;21.964;2023-03-02T08:48:44;79.30;;;40.75;;
56999;SDS011;42891;50.006;21.964;2023-03-02T08:52:44;76.47;;;38.50;;
56999;SDS011;42891;50.006;21.964;2023-03-02T08:56:45;79.35;;;40.15;;
56999;SDS011;42891;50.006;21.964;2023-03-02T09:00:45;82.18;;;39.33;;
56999;SDS011;42891;50.006;21.964;2023-03-02T09:04:46;60.22;;;32.80;;
56999;SDS011;42891;50.006;21.964;2023-03-02T09:08:46;68.97;;;35.30;;
56999;SDS011;42891;50.006;21.964;2023-03-02T09:12:48;73.95;;;35.13;;
56999;SDS011;42891;50.006;21.964;2023-03-02T09:16:49;69.00;;;36.10;;
56999;SDS011;42891;50.006;21.964;2023-03-02T09:20:51;65.50;;;33.47;;
56999;SDS011;42891;50.006;21.964;2023-03-02T09:24:52;57.10;;;30.88;;
56999;SDS011;42891;50.006;21.964;2023-03-02T09:28:52;49.20;;;27.57;;
56999;SDS011;42891;50.006;21.964;2023-03-02T09:32:53;56.78;;;27.98;;
56999;SDS011;42891;50.006;21.964;2023-03-02T09:36:54;46.30;;;25.00;;
56999;SDS011;42891;50.006;21.964;2023-03-02T09:45:23;39.22;;;22.73;;
56999;SDS011;42891;50.006;21.964;2023-03-02T09:53:50;39.17;;;20.38;;
56999;SDS011;42891;50.006;21.964;2023-03-02T09:57:57;37.85;;;19.95;;
56999;SDS011;42891;50.006;21.964;2023-03-02T10:02:19;35.20;;;18.73;;
56999;SDS011;42891;50.006;21.964;2023-03-02T10:06:23;26.45;;;15.15;;
56999;SDS011;42891;50.006;21.964;2023-03-02T10:10:38;22.60;;;12.50;;
56999;SDS011;42891;50.006;21.964;2023-03-02T10:15:30;28.67;;;15.63;;
56999;SDS011;42891;50.006;21.964;2023-03-02T10:23:48;33.28;;;17.48;;
56999;SDS011;42891;50.006;21.964;2023-03-02T10:28:00;37.93;;;20.60;;
56999;SDS011;42891;50.006;21.964;2023-03-02T10:36:26;36.13;;;19.88;;
56999;SDS011;42891;50.006;21.964;2023-03-02T10:40:32;38.33;;;22.88;;
56999;SDS011;42891;50.006;21.964;2023-03-02T10:44:44;34.03;;;19.40;;
56999;SDS011;42891;50.006;21.964;2023-03-02T10:48:48;41.55;;;23.35;;
56999;SDS011;42891;50.006;21.964;2023-03-02T10:52:49;42.67;;;24.90;;
56999;SDS011;42891;50.006;21.964;2023-03-02T10:56:51;43.55;;;23.92;;
56999;SDS011;42891;50.006;21.964;2023-03-02T11:00:54;47.65;;;24.67;;
56999;SDS011;42891;50.006;21.964;2023-03-02T11:05:25;42.97;;;24.05;;
56999;SDS011;42891;50.006;21.964;2023-03-02T11:09:33;48.47;;;25.73;;
56999;SDS011;42891;50.006;21.964;2023-03-02T11:13:37;47.80;;;23.77;;
56999;SDS011;42891;50.006;21.964;2023-03-02T11:17:38;42.72;;;24.13;;
56999;SDS011;42891;50.006;21.964;2023-03-02T11:21:42;42.63;;;24.50;;
56999;SDS011;42891;50.006;21.964;2023-03-02T11:25:50;41.65;;;23.73;;
56999;SDS011;42891;50.006;21.964;2023-03-02T11:29:56;42.92;;;24.38;;
56999;SDS011;42891;50.006;21.964;2023-03-02T11:34:04;40.40;;;22.73;;
56999;SDS011;42891;50.006;21.964;2023-03-02T11:42:32;35.47;;;22.05;;
56999;SDS011;42891;50.006;21.964;2023-03-02T11:46:34;34.28;;;19.30;;
56999;SDS011;42891;50.006;21.964;2023-03-02T11:55:26;30.58;;;18.58;;
56999;SDS011;42891;50.006;21.964;2023-03-02T11:59:30;24.02;;;15.65;;
56999;SDS011;42891;50.006;21.964;2023-03-02T12:07:33;20.40;;;14.10;;
56999;SDS011;42891;50.006;21.964;2023-03-02T12:11:35;19.63;;;13.35;;
56999;SDS011;42891;50.006;21.964;2023-03-02T12:15:39;22.17;;;14.07;;
56999;SDS011;42891;50.006;21.964;2023-03-02T12:19:42;21.08;;;13.40;;
56999;SDS011;42891;50.006;21.964;2023-03-02T12:27:51;22.45;;;14.50;;
56999;SDS011;42891;50.006;21.964;2023-03-02T12:31:53;26.88;;;17.15;;
56999;SDS011;42891;50.006;21.964;2023-03-02T12:36:02;28.70;;;18.30;;
56999;SDS011;42891;50.006;21.964;2023-03-02T12:40:17;26.48;;;18.00;;
56999;SDS011;42891;50.006;21.964;2023-03-02T12:44:32;28.75;;;17.85;;
56999;SDS011;42891;50.006;21.964;2023-03-02T12:48:43;28.23;;;19.02;;
56999;SDS011;42891;50.006;21.964;2023-03-02T12:53:04;29.65;;;20.30;;
56999;SDS011;42891;50.006;21.964;2023-03-02T13:01:19;36.17;;;24.42;;
56999;SDS011;42891;50.006;21.964;2023-03-02T13:05:24;39.33;;;28.20;;
56999;SDS011;42891;50.006;21.964;2023-03-02T13:09:34;38.97;;;26.83;;
56999;SDS011;42891;50.006;21.964;2023-03-02T13:13:41;44.95;;;27.13;;
56999;SDS011;42891;50.006;21.964;2023-03-02T13:17:43;43.70;;;27.80;;
56999;SDS011;42891;50.006;21.964;2023-03-02T13:21:51;42.97;;;28.33;;
56999;SDS011;42891;50.006;21.964;2023-03-02T13:25:53;41.63;;;28.60;;
56999;SDS011;42891;50.006;21.964;2023-03-02T13:29:55;37.22;;;25.80;;
56999;SDS011;42891;50.006;21.964;2023-03-02T13:34:16;40.22;;;26.30;;
56999;SDS011;42891;50.006;21.964;2023-03-02T13:38:21;37.30;;;25.35;;
56999;SDS011;42891;50.006;21.964;2023-03-02T13:42:27;34.83;;;23.98;;
56999;SDS011;42891;50.006;21.964;2023-03-02T13:46:34;48.45;;;31.15;;
56999;SDS011;42891;50.006;21.964;2023-03-02T13:50:34;39.22;;;23.00;;
56999;SDS011;42891;50.006;21.964;2023-03-02T13:54:35;36.90;;;24.58;;
56999;SDS011;42891;50.006;21.964;2023-03-02T13:58:36;34.80;;;21.35;;
56999;SDS011;42891;50.006;21.964;2023-03-02T14:02:39;35.10;;;22.88;;
56999;SDS011;42891;50.006;21.964;2023-03-02T14:06:42;27.30;;;17.95;;
56999;SDS011;42891;50.006;21.964;2023-03-02T14:10:42;28.80;;;18.15;;
56999;SDS011;42891;50.006;21.964;2023-03-02T14:14:43;24.45;;;16.65;;
56999;SDS011;42891;50.006;21.964;2023-03-02T14:18:47;25.90;;;17.23;;
56999;SDS011;42891;50.006;21.964;2023-03-02T14:22:49;28.98;;;17.75;;
56999;SDS011;42891;50.006;21.964;2023-03-02T14:26:49;24.90;;;15.93;;
56999;SDS011;42891;50.006;21.964;2023-03-02T14:30:51;25.50;;;16.48;;
56999;SDS011;42891;50.006;21.964;2023-03-02T14:34:54;26.20;;;16.55;;
56999;SDS011;42891;50.006;21.964;2023-03-02T14:38:55;24.27;;;15.47;;
56999;SDS011;42891;50.006;21.964;2023-03-02T14:42:56;24.95;;;15.40;;
56999;SDS011;42891;50.006;21.964;2023-03-02T14:46:56;27.25;;;17.42;;
56999;SDS011;42891;50.006;21.964;2023-03-02T14:50:57;25.17;;;15.60;;
56999;SDS011;42891;50.006;21.964;2023-03-02T14:55:02;24.88;;;15.63;;
56999;SDS011;42891;50.006;21.964;2023-03-02T14:59:07;24.60;;;16.30;;
56999;SDS011;42891;50.006;21.964;2023-03-02T15:03:13;34.47;;;20.02;;
56999;SDS011;42891;50.006;21.964;2023-03-02T15:07:15;30.35;;;18.20;;
56999;SDS011;42891;50.006;21.964;2023-03-02T15:11:16;36.00;;;20.70;;
56999;SDS011;42891;50.006;21.964;2023-03-02T15:15:16;32.25;;;18.70;;
56999;SDS011;42891;50.006;21.964;2023-03-02T15:19:16;38.10;;;22.92;;
56999;SDS011;42891;50.006;21.964;2023-03-02T15:23:18;31.63;;;19.63;;
56999;SDS011;42891;50.006;21.964;2023-03-02T15:27:18;38.17;;;21.23;;
56999;SDS011;42891;50.006;21.964;2023-03-02T15:31:19;37.10;;;19.88;;
56999;SDS011;42891;50.006;21.964;2023-03-02T15:35:20;28.30;;;17.58;;
56999;SDS011;42891;50.006;21.964;2023-03-02T15:39:20;29.90;;;17.77;;
56999;SDS011;42891;50.006;21.964;2023-03-02T15:43:20;29.83;;;17.63;;
56999;SDS011;42891;50.006;21.964;2023-03-02T15:47:21;26.90;;;17.07;;
56999;SDS011;42891;50.006;21.964;2023-03-02T15:51:21;28.30;;;17.58;;
56999;SDS011;42891;50.006;21.964;2023-03-02T15:55:22;28.65;;;17.02;;
56999;SDS011;42891;50.006;21.964;2023-03-02T15:59:24;34.60;;;19.17;;
56999;SDS011;42891;50.006;21.964;2023-03-02T16:03:26;34.63;;;21.27;;
56999;SDS011;42891;50.006;21.964;2023-03-02T16:07:26;35.50;;;22.13;;
56999;SDS011;42891;50.006;21.964;2023-03-02T16:11:27;36.33;;;23.10;;
56999;SDS011;42891;50.006;21.964;2023-03-02T16:15:27;40.03;;;23.80;;
56999;SDS011;42891;50.006;21.964;2023-03-02T16:19:27;38.67;;;22.45;;
56999;SDS011;42891;50.006;21.964;2023-03-02T16:23:28;38.22;;;23.35;;
56999;SDS011;42891;50.006;21.964;2023-03-02T16:27:28;39.90;;;23.95;;
56999;SDS011;42891;50.006;21.964;2023-03-02T16:31:29;43.63;;;25.13;;
56999;SDS011;42891;50.006;21.964;2023-03-02T16:35:32;44.33;;;25.17;;
56999;SDS011;42891;50.006;21.964;2023-03-02T16:39:33;46.42;;;26.45;;
56999;SDS011;42891;50.006;21.964;2023-03-02T16:43:38;68.90;;;38.63;;
56999;SDS011;42891;50.006;21.964;2023-03-02T16:47:43;45.72;;;26.30;;
56999;SDS011;42891;50.006;21.964;2023-03-02T16:51:43;50.63;;;26.95;;
56999;SDS011;42891;50.006;21.964;2023-03-02T16:55:44;41.75;;;24.30;;
56999;SDS011;42891;50.006;21.964;2023-03-02T16:59:44;41.80;;;25.30;;
56999;SDS011;42891;50.006;21.964;2023-03-02T17:03:44;53.57;;;31.53;;
56999;SDS011;42891;50.006;21.964;2023-03-02T17:07:46;64.20;;;36.38;;
56999;SDS011;42891;50.006;21.964;2023-03-02T17:11:47;107.20;;;54.92;;
56999;SDS011;42891;50.006;21.964;2023-03-02T17:15:47;73.72;;;41.53;;
56999;SDS011;42891;50.006;21.964;2023-03-02T17:19:47;66.07;;;36.40;;
56999;SDS011;42891;50.006;21.964;2023-03-02T17:23:48;68.10;;;39.08;;
56999;SDS011;42891;50.006;21.964;2023-03-02T17:27:48;74.63;;;43.23;;
56999;SDS011;42891;50.006;21.964;2023-03-02T17:31:48;92.43;;;51.53;;
56999;SDS011;42891;50.006;21.964;2023-03-02T17:35:48;61.80;;;33.63;;
56999;SDS011;42891;50.006;21.964;2023-03-02T17:39:49;55.90;;;32.50;;
56999;SDS011;42891;50.006;21.964;2023-03-02T17:43:50;64.05;;;36.38;;
56999;SDS011;42891;50.006;21.964;2023-03-02T17:47:51;88.80;;;40.40;;
56999;SDS011;42891;50.006;21.964;2023-03-02T17:51:52;69.68;;;35.92;;
56999;SDS011;42891;50.006;21.964;2023-03-02T17:55:52;72.67;;;37.63;;
56999;SDS011;42891;50.006;21.964;2023-03-02T17:59:53;66.23;;;35.90;;
56999;SDS011;42891;50.006;21.964;2023-03-02T18:03:53;62.67;;;36.17;;
56999;SDS011;42891;50.006;21.964;2023-03-02T18:07:53;61.53;;;33.92;;
56999;SDS011;42891;50.006;21.964;2023-03-02T18:11:54;62.50;;;34.17;;
56999;SDS011;42891;50.006;21.964;2023-03-02T18:15:54;62.78;;;33.60;;
56999;SDS011;42891;50.006;21.964;2023-03-02T18:19:54;59.58;;;33.90;;
56999;SDS011;42891;50.006;21.964;2023-03-02T18:23:55;58.50;;;32.53;;
56999;SDS011;42891;50.006;21.964;2023-03-02T18:27:56;53.13;;;30.70;;
56999;SDS011;42891;50.006;21.964;2023-03-02T18:31:56;60.27;;;33.00;;
56999;SDS011;42891;50.006;21.964;2023-03-02T18:35:56;57.70;;;34.00;;
56999;SDS011;42891;50.006;21.964;2023-03-02T18:39:57;60.40;;;33.85;;
56999;SDS011;42891;50.006;21.964;2023-03-02T18:43:57;65.27;;;36.30;;
56999;SDS011;42891;50.006;21.964;2023-03-02T18:48:00;89.15;;;51.10;;
56999;SDS011;42891;50.006;21.964;2023-03-02T18:52:00;67.90;;;39.33;;
56999;SDS011;42891;50.006;21.964;2023-03-02T18:56:05;63.50;;;35.90;;
56999;SDS011;42891;50.006;21.964;2023-03-02T19:00:08;79.25;;;44.88;;
56999;SDS011;42891;50.006;21.964;2023-03-02T19:04:13;72.63;;;45.38;;
56999;SDS011;42891;50.006;21.964;2023-03-02T19:08:13;78.70;;;48.92;;
56999;SDS011;42891;50.006;21.964;2023-03-02T19:12:14;80.70;;;47.67;;
56999;SDS011;42891;50.006;21.964;2023-03-02T19:16:14;79.45;;;44.20;;
56999;SDS011;42891;50.006;21.964;2023-03-02T19:20:15;78.27;;;44.93;;
56999;SDS011;42891;50.006;21.964;2023-03-02T19:24:15;83.03;;;50.03;;
56999;SDS011;42891;50.006;21.964;2023-03-02T19:28:16;86.77;;;53.30;;
56999;SDS011;42891;50.006;21.964;2023-03-02T19:32:16;83.72;;;52.15;;
56999;SDS011;42891;50.006;21.964;2023-03-02T19:36:16;80.05;;;46.58;;
56999;SDS011;42891;50.006;21.964;2023-03-02T19:40:18;95.63;;;51.65;;
56999;SDS011;42891;50.006;21.964;2023-03-02T19:44:19;126.28;;;58.10;;
56999;SDS011;42891;50.006;21.964;2023-03-02T19:48:20;131.38;;;58.80;;
56999;SDS011;42891;50.006;21.964;2023-03-02T19:52:20;131.32;;;59.47;;
56999;SDS011;42891;50.006;21.964;2023-03-02T19:56:20;150.80;;;68.00;;
56999;SDS011;42891;50.006;21.964;2023-03-02T20:00:21;151.30;;;67.35;;
56999;SDS011;42891;50.006;21.964;2023-03-02T20:04:22;141.38;;;63.53;;
56999;SDS011;42891;50.006;21.964;2023-03-02T20:08:23;130.68;;;60.33;;
56999;SDS011;42891;50.006;21.964;2023-03-02T20:12:24;125.65;;;60.53;;
56999;SDS011;42891;50.006;21.964;2023-03-02T20:16:25;130.23;;;64.57;;
56999;SDS011;42891;50.006;21.964;2023-03-02T20:20:25;158.35;;;72.18;;
56999;SDS011;42891;50.006;21.964;2023-03-02T20:24:26;153.18;;;75.95;;
56999;SDS011;42891;50.006;21.964;2023-03-02T20:28:26;150.60;;;75.22;;
56999;SDS011;42891;50.006;21.964;2023-03-02T20:32:27;155.02;;;73.47;;
56999;SDS011;42891;50.006;21.964;2023-03-02T20:36:29;153.77;;;76.40;;
56999;SDS011;42891;50.006;21.964;2023-03-02T20:40:32;155.40;;;76.70;;
56999;SDS011;42891;50.006;21.964;2023-03-02T20:44:32;167.35;;;80.80;;
56999;SDS011;42891;50.006;21.964;2023-03-02T20:48:33;153.88;;;76.88;;
56999;SDS011;42891;50.006;21.964;2023-03-02T20:52:35;159.50;;;77.75;;
56999;SDS011;42891;50.006;21.964;2023-03-02T20:56:36;181.38;;;90.28;;
56999;SDS011;42891;50.006;21.964;2023-03-02T21:00:37;183.27;;;88.43;;
56999;SDS011;42891;50.006;21.964;2023-03-02T21:04:38;225.40;;;114.50;;
56999;SDS011;42891;50.006;21.964;2023-03-02T21:08:39;190.35;;;93.82;;
56999;SDS011;42891;50.006;21.964;2023-03-02T21:12:40;190.98;;;96.93;;
56999;SDS011;42891;50.006;21.964;2023-03-02T21:16:42;204.65;;;98.40;;
56999;SDS011;42891;50.006;21.964;2023-03-02T21:20:43;197.32;;;96.65;;
56999;SDS011;42891;50.006;21.964;2023-03-02T21:24:44;184.93;;;92.93;;
56999;SDS011;42891;50.006;21.964;2023-03-02T21:28:44;195.90;;;94.88;;
56999;SDS011;42891;50.006;21.964;2023-03-02T21:32:45;196.23;;;95.38;;
56999;SDS011;42891;50.006;21.964;2023-03-02T21:36:46;212.88;;;100.50;;
56999;SDS011;42891;50.006;21.964;2023-03-02T21:40:47;209.10;;;95.10;;
56999;SDS011;42891;50.006;21.964;2023-03-02T21:44:47;202.02;;;94.72;;
56999;SDS011;42891;50.006;21.964;2023-03-02T21:48:48;197.10;;;92.20;;
56999;SDS011;42891;50.006;21.964;2023-03-02T21:52:49;203.63;;;92.50;;
56999;SDS011;42891;50.006;21.964;2023-03-02T21:56:49;218.25;;;95.80;;
56999;SDS011;42891;50.006;21.964;2023-03-02T22:00:50;210.35;;;94.80;;
56999;SDS011;42891;50.006;21.964;2023-03-02T22:04:50;207.43;;;93.57;;
56999;SDS011;42891;50.006;21.964;2023-03-02T22:08:50;209.32;;;95.63;;
56999;SDS011;42891;50.006;21.964;2023-03-02T22:12:52;326.13;;;124.82;;
56999;SDS011;42891;50.006;21.964;2023-03-02T22:16:54;1026.72;;;385.23;;
56999;SDS011;42891;50.006;21.964;2023-03-02T22:20:57;529.78;;;200.63;;
56999;SDS011;42891;50.006;21.964;2023-03-02T22:24:57;783.05;;;313.30;;
56999;SDS011;42891;50.006;21.964;2023-03-02T22:29:06;751.28;;;310.05;;
56999;SDS011;42891;50.006;21.964;2023-03-02T22:33:15;546.25;;;222.68;;
56999;SDS011;42891;50.006;21.964;2023-03-02T22:37:28;566.25;;;225.60;;
56999;SDS011;42891;50.006;21.964;2023-03-02T22:41:31;487.77;;;193.10;;
56999;SDS011;42891;50.006;21.964;2023-03-02T22:45:32;473.63;;;182.90;;
56999;SDS011;42891;50.006;21.964;2023-03-02T22:49:33;438.95;;;169.38;;
56999;SDS011;42891;50.006;21.964;2023-03-02T22:53:34;434.35;;;169.80;;
56999;SDS011;42891;50.006;21.964;2023-03-02T22:57:38;404.00;;;155.03;;
56999;SDS011;42891;50.006;21.964;2023-03-02T23:01:41;281.48;;;123.55;;
56999;SDS011;42891;50.006;21.964;2023-03-02T23:05:43;323.55;;;128.77;;
56999;SDS011;42891;50.006;21.964;2023-03-02T23:09:47;272.48;;;116.85;;
56999;SDS011;42891;50.006;21.964;2023-03-02T23:13:48;318.75;;;127.00;;
56999;SDS011;42891;50.006;21.964;2023-03-02T23:17:49;301.92;;;121.10;;
56999;SDS011;42891;50.006;21.964;2023-03-02T23:21:49;306.95;;;127.07;;
56999;SDS011;42891;50.006;21.964;2023-03-02T23:25:50;263.33;;;119.40;;
56999;SDS011;42891;50.006;21.964;2023-03-02T23:29:50;283.13;;;128.80;;
56999;SDS011;42891;50.006;21.964;2023-03-02T23:33:51;330.58;;;139.10;;
56999;SDS011;42891;50.006;21.964;2023-03-02T23:37:51;351.83;;;149.95;;
56999;SDS011;42891;50.006;21.964;2023-03-02T23:41:52;367.98;;;153.70;;
56999;SDS011;42891;50.006;21.964;2023-03-02T23:45:52;296.80;;;131.68;;
56999;SDS011;42891;50.006;21.964;2023-03-02T23:49:53;239.00;;;109.90;;
56999;SDS011;42891;50.006;21.964;2023-03-02T23:53:53;223.60;;;106.50;;
56999;SDS011;42891;50.006;21.964;2023-03-02T23:57:54;230.07;;;106.72;;
